Time;durP1;ratioP1;P1;durP2;ratioP2;P2;SDS_P1;SDS_P2;PMS_P1;PMS_P2;Temp;Humidity;BMP_temperature;BMP_pressure;BME280_temperature;BME280_humidity;BME280_pressure;Samples;Min_cycle;Max_cycle;Signal;HPM_P1;HPM_P2
2022/06/15 00:01:03;;;;;;;3.20;0.30;;;22.60;75.90;;;;;;5033059;28;20116;-79
2022/06/15 00:03:32;;;;;;;0.00;0.00;;;22.60;75.70;;;;;;5031614;28;20043;-79
2022/06/15 00:06:12;;;;;;;0.10;0.10;;;22.60;75.60;;;;;;5036603;28;20033;-79
2022/06/15 00:08:39;;;;;;;0.35;0.15;;;22.70;75.50;;;;;;5031798;28;20091;-79
2022/06/15 00:11:12;;;;;;;0.10;0.10;;;22.70;75.30;;;;;;5028192;28;20044;-79
2022/06/15 00:13:38;;;;;;;0.10;0.10;;;22.60;75.50;;;;;;5028638;28;20602;-80
2022/06/15 00:16:05;;;;;;;0.30;0.20;;;22.60;75.50;;;;;;5026569;28;20033;-79
2022/06/15 00:18:35;;;;;;;0.32;0.32;;;22.60;75.60;;;;;;5031567;28;20913;-79
2022/06/15 00:21:01;;;;;;;0.20;0.20;;;22.60;75.70;;;;;;5031542;28;20041;-79
2022/06/15 00:23:28;;;;;;;12.27;0.63;;;22.50;76.00;;;;;;5014383;28;20050;-78
2022/06/15 00:25:54;;;;;;;0.47;0.47;;;22.40;76.30;;;;;;5034243;28;20295;-79
2022/06/15 00:28:21;;;;;;;0.10;0.10;;;22.30;77.20;;;;;;5031089;28;20734;-80
2022/06/15 00:30:51;;;;;;;0.30;0.30;;;22.20;77.80;;;;;;5031687;28;20037;-78
2022/06/15 00:33:19;;;;;;;4.85;0.95;;;22.10;78.10;;;;;;5032339;28;20047;-79
2022/06/15 00:35:57;;;;;;;0.85;0.75;;;22.00;78.20;;;;;;5033237;28;20053;-79
2022/06/15 00:38:34;;;;;;;0.32;0.32;;;22.10;78.10;;;;;;5032419;28;20026;-79
2022/06/15 00:41:00;;;;;;;0.20;0.20;;;22.10;78.10;;;;;;5033228;28;20044;-79
2022/06/15 00:43:35;;;;;;;0.20;0.20;;;22.10;78.10;;;;;;5027545;28;20029;-79
2022/06/15 00:46:21;;;;;;;0.30;0.30;;;22.00;78.50;;;;;;5033934;28;20057;-79
2022/06/15 00:48:53;;;;;;;1.08;0.82;;;22.00;78.40;;;;;;4947544;28;20062;-78
2022/06/15 00:51:19;;;;;;;0.63;0.63;;;22.00;78.30;;;;;;4947261;28;20046;-79
2022/06/15 00:53:45;;;;;;;;;;;22.00;78.10;;;;;;4947760;28;20600;-79
2022/06/15 00:56:11;;;;;;;0.03;0.03;;;22.10;77.40;;;;;;4946696;28;20001;-79
2022/06/15 00:58:41;;;;;;;0.10;0.10;;;22.10;77.50;;;;;;4947454;28;20035;-79
2022/06/15 01:01:07;;;;;;;0.25;0.25;;;22.10;77.60;;;;;;4930600;28;20794;-79
2022/06/15 01:03:33;;;;;;;0.70;0.60;;;22.10;77.50;;;;;;4950592;28;20155;-78
2022/06/15 01:06:10;;;;;;;0.32;0.32;;;22.00;77.80;;;;;;4948545;28;20743;-79
2022/06/15 01:08:41;;;;;;;;;;;22.00;78.10;;;;;;4937130;28;20042;-79
2022/06/15 01:11:22;;;;;;;0.17;0.17;;;22.00;78.30;;;;;;4952001;28;19917;-79
2022/06/15 01:14:09;;;;;;;0.30;0.30;;;21.90;78.60;;;;;;4936024;28;20039;-79
2022/06/15 01:16:54;;;;;;;2.60;0.55;;;22.00;78.30;;;;;;4949954;28;20507;-79
2022/06/15 01:19:28;;;;;;;5.73;0.40;;;22.10;77.90;;;;;;4933485;28;20695;-79
2022/06/15 01:22:18;;;;;;;0.98;0.40;;;22.20;77.10;;;;;;4950216;28;20710;-79
2022/06/15 01:25:00;;;;;;;0.68;0.68;;;22.10;77.50;;;;;;4949651;28;20037;-79
2022/06/15 01:27:37;;;;;;;0.05;0.05;;;22.10;77.30;;;;;;5017181;28;20095;-79
2022/06/15 01:30:09;;;;;;;1.30;0.82;;;22.00;77.80;;;;;;5013124;28;20719;-79
2022/06/15 01:32:49;;;;;;;1.05;0.43;;;22.00;78.00;;;;;;5014358;28;20432;-77
2022/06/15 01:35:27;;;;;;;0.28;0.28;;;21.90;78.00;;;;;;5015752;28;20512;-78
2022/06/15 01:38:19;;;;;;;0.28;0.20;;;22.00;77.70;;;;;;5015851;28;20041;-78
2022/06/15 01:40:50;;;;;;;1.25;0.77;;;21.90;78.10;;;;;;5014566;28;20841;-79
2022/06/15 01:43:20;;;;;;;3.03;1.27;;;21.80;78.90;;;;;;5009985;28;20124;-77
2022/06/15 01:45:48;;;;;;;0.88;0.57;;;21.70;79.30;;;;;;5013242;28;20076;-77
2022/06/15 01:48:15;;;;;;;0.38;0.13;;;21.70;79.10;;;;;;5004683;28;20132;-78
2022/06/15 01:50:58;;;;;;;0.60;0.60;;;21.80;79.10;;;;;;5033521;28;23762;-79
2022/06/15 01:53:33;;;;;;;0.20;0.20;;;21.60;79.70;;;;;;5035422;28;20127;-78
2022/06/15 01:56:13;;;;;;;0.77;0.73;;;21.60;79.90;;;;;;5031392;28;20036;-79
2022/06/15 01:58:44;;;;;;;0.10;0.10;;;21.60;79.90;;;;;;5031053;28;20033;-78
2022/06/15 02:01:22;;;;;;;0.20;0.20;;;21.60;80.10;;;;;;5030513;28;20029;-78
2022/06/15 02:03:58;;;;;;;2.05;1.00;;;21.60;80.00;;;;;;5031624;28;20025;-79
2022/06/15 02:06:47;;;;;;;0.20;0.20;;;21.50;80.00;;;;;;5037970;28;20039;-78
2022/06/15 02:09:28;;;;;;;0.20;0.20;;;21.40;80.50;;;;;;5035399;28;20044;-78
2022/06/15 02:11:56;;;;;;;0.20;0.20;;;21.30;81.30;;;;;;5035632;28;20029;-79
2022/06/15 02:14:33;;;;;;;0.20;0.10;;;21.20;82.30;;;;;;5036729;28;20035;-78
2022/06/15 02:17:07;;;;;;;3.33;0.90;;;21.30;81.30;;;;;;5036318;28;20040;-79
2022/06/15 02:19:41;;;;;;;0.10;0.10;;;21.30;81.20;;;;;;5034105;28;20068;-78
2022/06/15 02:22:11;;;;;;;1.00;0.93;;;21.30;81.00;;;;;;5017687;28;20074;-79
2022/06/15 02:24:38;;;;;;;0.10;0.10;;;21.30;80.90;;;;;;5035785;28;20025;-78
2022/06/15 02:27:07;;;;;;;1.23;1.13;;;21.40;80.60;;;;;;5031451;28;20058;-79
2022/06/15 02:29:37;;;;;;;0.85;0.68;;;21.40;80.60;;;;;;5013084;28;21110;-78
2022/06/15 02:32:10;;;;;;;0.63;0.63;;;21.30;80.60;;;;;;5030011;28;20871;-78
2022/06/15 02:34:36;;;;;;;2.90;0.65;;;21.30;80.80;;;;;;5030329;28;20024;-80
2022/06/15 02:37:04;;;;;;;0.17;0.17;;;21.30;80.90;;;;;;5034978;28;20033;-79
2022/06/15 02:39:31;;;;;;;0.20;0.20;;;21.30;80.60;;;;;;5034315;28;20515;-78
2022/06/15 02:42:03;;;;;;;0.00;0.00;;;21.40;80.30;;;;;;5034642;28;20033;-78
2022/06/15 02:44:32;;;;;;;0.40;0.40;;;21.40;80.00;;;;;;5036266;28;20475;-78
2022/06/15 02:46:59;;;;;;;0.75;0.60;;;21.40;80.20;;;;;;5034781;28;20032;-78
2022/06/15 02:49:25;;;;;;;2.42;1.48;;;21.30;80.20;;;;;;5032165;28;20041;-78
2022/06/15 02:51:59;;;;;;;0.30;0.30;;;21.30;80.20;;;;;;5034999;28;20321;-79
2022/06/15 02:54:46;;;;;;;0.20;0.15;;;21.30;80.60;;;;;;5027687;28;20025;-78
2022/06/15 02:57:13;;;;;;;0.57;0.43;;;21.10;81.80;;;;;;5035417;28;20090;-78
2022/06/15 02:59:40;;;;;;;0.60;0.60;;;21.00;82.30;;;;;;5018897;28;20480;-78
2022/06/15 03:02:05;;;;;;;2.22;0.73;;;20.90;82.70;;;;;;5032530;28;20401;-80
2022/06/15 03:04:31;;;;;;;0.17;0.17;;;20.80;83.60;;;;;;5028168;28;20043;-80
2022/06/15 03:06:57;;;;;;;0.30;0.30;;;20.70;83.80;;;;;;5002087;28;20033;-80
2022/06/15 03:09:24;;;;;;;0.50;0.50;;;20.70;84.20;;;;;;5027654;28;20036;-79
2022/06/15 03:11:50;;;;;;;0.20;0.20;;;20.60;84.60;;;;;;5030129;28;20021;-79
2022/06/15 03:14:16;;;;;;;0.75;0.75;;;20.60;84.30;;;;;;5030951;28;20103;-79
2022/06/15 03:16:43;;;;;;;0.10;0.10;;;20.60;84.30;;;;;;5028235;28;20039;-79
2022/06/15 03:19:12;;;;;;;0.30;0.30;;;20.60;84.00;;;;;;5034524;28;20048;-80
2022/06/15 03:21:39;;;;;;;2.72;1.05;;;20.50;84.60;;;;;;5034186;28;20029;-81
2022/06/15 03:24:05;;;;;;;0.38;0.38;;;20.70;83.50;;;;;;5034032;28;20033;-80
2022/06/15 03:26:31;;;;;;;0.20;0.20;;;20.80;82.50;;;;;;5035378;28;20659;-80
2022/06/15 03:28:57;;;;;;;0.20;0.15;;;20.90;81.70;;;;;;4997367;28;20484;-80
2022/06/15 03:31:23;;;;;;;0.13;0.13;;;20.90;81.40;;;;;;5031689;28;20033;-80
2022/06/15 03:33:48;;;;;;;1.40;0.63;;;21.00;80.30;;;;;;5033458;28;20029;-80
2022/06/15 03:36:14;;;;;;;0.47;0.40;;;21.00;79.70;;;;;;5034459;28;20033;-79
2022/06/15 03:38:40;;;;;;;0.20;0.20;;;21.00;79.90;;;;;;5033784;28;20033;-79
2022/06/15 03:41:06;;;;;;;0.13;0.13;;;21.00;79.10;;;;;;5030881;28;20462;-78
2022/06/15 03:43:32;;;;;;;0.40;0.40;;;21.00;78.70;;;;;;5028834;28;20021;-78
2022/06/15 03:45:58;;;;;;;0.20;0.20;;;21.00;78.80;;;;;;5032460;28;20045;-77
2022/06/15 03:48:24;;;;;;;5.03;1.20;;;21.00;79.10;;;;;;5031758;28;20841;-78
2022/06/15 03:50:50;;;;;;;0.32;0.32;;;20.90;79.80;;;;;;5028522;28;20079;-79
2022/06/15 03:53:15;;;;;;;0.05;0.05;;;20.90;79.50;;;;;;5030493;28;20083;-78
2022/06/15 03:55:43;;;;;;;0.20;0.20;;;20.90;79.10;;;;;;5032466;28;20147;-81
2022/06/15 03:58:14;;;;;;;0.20;0.20;;;20.80;79.90;;;;;;5034744;28;20078;-79
2022/06/15 04:00:40;;;;;;;0.17;0.17;;;20.70;80.50;;;;;;5029635;28;20124;-79
2022/06/15 04:03:05;;;;;;;0.10;0.10;;;20.80;80.40;;;;;;5031265;28;20068;-78
2022/06/15 04:05:34;;;;;;;6.20;0.67;;;20.70;80.80;;;;;;5036049;28;20116;-78
2022/06/15 04:10:45;;;;;;;0.15;0.15;;;20.70;81.00;;;;;;5027531;28;20072;-80
2022/06/15 04:13:12;;;;;;;0.10;0.10;;;20.60;81.70;;;;;;5028393;28;20099;-80
2022/06/15 04:15:37;;;;;;;;;;;20.60;81.80;;;;;;5031373;28;20033;-79
2022/06/15 04:18:03;;;;;;;0.55;0.50;;;20.40;82.60;;;;;;5034096;28;19939;-81
2022/06/15 04:20:32;;;;;;;0.17;0.17;;;20.40;83.00;;;;;;5030235;28;20913;-80
2022/06/15 04:22:58;;;;;;;0.40;0.30;;;20.20;84.00;;;;;;5032656;28;20295;-80
2022/06/15 04:25:24;;;;;;;;;;;20.20;83.50;;;;;;5032723;28;21518;-84
2022/06/15 04:27:49;;;;;;;0.10;0.10;;;20.20;83.90;;;;;;5000375;28;19923;-82
2022/06/15 04:30:15;;;;;;;0.30;0.30;;;20.10;84.20;;;;;;5027692;28;20290;-82
2022/06/15 04:32:41;;;;;;;0.30;0.20;;;20.10;84.30;;;;;;5034774;28;20024;-75
2022/06/15 04:35:07;;;;;;;0.10;0.10;;;20.20;84.00;;;;;;5032346;28;20485;-75
2022/06/15 04:37:33;;;;;;;2.53;1.35;;;20.10;84.00;;;;;;5036376;28;20033;-77
2022/06/15 04:39:59;;;;;;;0.97;0.57;;;20.00;84.60;;;;;;5039543;28;20090;-80
2022/06/15 04:42:24;;;;;;;1.70;1.33;;;20.20;84.00;;;;;;5041991;28;20034;-78
2022/06/15 04:44:51;;;;;;;0.47;0.47;;;20.20;83.50;;;;;;5041640;28;20512;-77
2022/06/15 04:47:17;;;;;;;0.10;0.10;;;20.30;83.40;;;;;;5018370;28;20636;-77
2022/06/15 04:49:43;;;;;;;0.27;0.27;;;20.60;81.40;;;;;;5012948;28;20057;-78
2022/06/15 04:52:08;;;;;;;0.23;0.23;;;20.80;80.00;;;;;;5029110;28;20416;-78
2022/06/15 04:54:34;;;;;;;1.27;1.17;;;20.80;79.40;;;;;;5029638;28;20146;-78
2022/06/15 04:57:00;;;;;;;0.50;0.47;;;21.00;79.10;;;;;;5029853;28;20025;-77
2022/06/15 04:59:25;;;;;;;0.70;0.70;;;21.10;78.20;;;;;;5029088;28;20056;-76
2022/06/15 05:01:51;;;;;;;2.00;1.07;;;21.20;78.30;;;;;;5030705;28;20036;-77
2022/06/15 05:04:18;;;;;;;0.37;0.30;;;21.20;77.90;;;;;;5010505;28;20083;-76
2022/06/15 05:06:44;;;;;;;0.43;0.43;;;21.20;77.20;;;;;;5017196;28;20037;-79
2022/06/15 05:09:12;;;;;;;3.63;1.75;;;21.40;76.80;;;;;;5031109;28;20041;-77
2022/06/15 05:11:38;;;;;;;4.57;1.73;;;20.20;99.90;;;;;;5033258;28;20030;-83
2022/06/15 05:14:04;;;;;;;0.70;0.70;;;20.20;99.90;;;;;;5033135;28;20049;-82
2022/06/15 05:16:32;;;;;;;0.43;0.43;;;20.20;99.90;;;;;;5042437;28;20025;-79
2022/06/15 05:18:58;;;;;;;0.75;0.32;;;20.50;99.90;;;;;;5042235;28;20496;-80
2022/06/15 05:21:24;;;;;;;4.45;0.55;;;20.60;99.90;;;;;;5042282;28;20032;-81
2022/06/15 05:23:50;;;;;;;1.43;0.70;;;20.50;99.90;;;;;;5040975;28;20033;-79
2022/06/15 05:26:16;;;;;;;0.10;0.10;;;20.90;99.90;;;;;;5041057;28;20037;-81
2022/06/15 05:28:46;;;;;;;4.30;0.65;;;20.90;99.90;;;;;;5042194;28;20067;-79
2022/06/15 05:31:18;;;;;;;1.02;0.50;;;20.90;99.90;;;;;;5042175;28;20037;-79
2022/06/15 05:33:45;;;;;;;1.13;0.57;;;20.90;99.90;;;;;;5042588;28;20044;-81
2022/06/15 05:36:13;;;;;;;0.28;0.28;;;20.70;99.90;;;;;;5039366;28;20037;-80
2022/06/15 05:38:40;;;;;;;0.28;0.28;;;20.60;99.90;;;;;;5014393;28;20029;-79
2022/06/15 05:41:06;;;;;;;0.70;0.70;;;20.40;99.90;;;;;;5036339;28;20070;-79
2022/06/15 05:43:32;;;;;;;0.68;0.65;;;20.50;99.90;;;;;;5035353;28;20032;-80
2022/06/15 05:45:58;;;;;;;0.22;0.22;;;20.70;99.90;;;;;;5010256;28;20542;-80
2022/06/15 05:48:25;;;;;;;1.83;0.55;;;20.70;99.90;;;;;;5024194;28;20116;-80
2022/06/15 05:50:50;;;;;;;0.40;0.40;;;20.70;99.90;;;;;;5044087;28;20052;-80
2022/06/15 05:53:16;;;;;;;0.37;0.37;;;21.00;99.90;;;;;;5040408;28;20037;-80
2022/06/15 05:55:42;;;;;;;0.37;0.23;;;21.00;99.90;;;;;;5041114;28;20090;-79
2022/06/15 05:58:07;;;;;;;0.60;0.60;;;21.00;99.90;;;;;;5040512;28;20068;-79
2022/06/15 06:00:33;;;;;;;0.30;0.30;;;21.10;99.90;;;;;;5041298;28;20071;-81
2022/06/15 06:03:00;;;;;;;0.23;0.23;;;21.40;99.90;;;;;;5034796;28;20091;-81
2022/06/15 06:05:25;;;;;;;0.30;0.30;;;21.10;99.90;;;;;;5032386;28;20038;-81
2022/06/15 06:07:51;;;;;;;0.20;0.20;;;21.00;99.90;;;;;;5027648;28;20056;-80
2022/06/15 06:10:17;;;;;;;0.27;0.27;;;21.10;99.90;;;;;;5033938;28;20032;-80
2022/06/15 06:12:43;;;;;;;1.57;1.10;;;21.00;99.90;;;;;;5032642;28;20031;-79
2022/06/15 06:15:09;;;;;;;0.57;0.37;;;20.90;99.90;;;;;;5030857;28;20055;-79
2022/06/15 06:17:34;;;;;;;0.88;0.40;;;20.60;99.90;;;;;;5031227;28;20025;-79
2022/06/15 06:20:00;;;;;;;5.43;1.50;;;20.50;99.90;;;;;;5014091;28;20041;-79
2022/06/15 06:22:26;;;;;;;0.50;0.47;;;20.80;99.90;;;;;;5040079;28;20040;-79
2022/06/15 06:24:51;;;;;;;0.20;0.20;;;20.80;99.90;;;;;;5029471;28;21014;-79
2022/06/15 06:27:17;;;;;;;0.30;0.30;;;21.00;99.90;;;;;;5029285;28;20465;-79
2022/06/15 06:29:44;;;;;;;0.37;0.37;;;21.00;99.90;;;;;;5029275;28;20026;-79
2022/06/15 06:32:14;;;;;;;0.32;0.32;;;21.00;99.90;;;;;;5030713;28;20037;-79
2022/06/15 06:34:40;;;;;;;1.05;0.95;;;20.70;99.90;;;;;;5028650;28;20052;-79
2022/06/15 06:37:07;;;;;;;6.17;0.90;;;20.70;99.90;;;;;;5008872;28;20033;-80
2022/06/15 06:39:34;;;;;;;0.45;0.45;;;20.80;99.90;;;;;;5036360;28;20029;-79
2022/06/15 06:42:03;;;;;;;3.33;1.23;;;20.80;99.90;;;;;;5013334;28;20041;-79
2022/06/15 06:44:29;;;;;;;0.68;0.63;;;20.70;99.90;;;;;;5029628;28;20024;-81
2022/06/15 06:46:55;;;;;;;4.30;0.63;;;20.70;99.90;;;;;;5004780;28;20079;-81
2022/06/15 06:49:22;;;;;;;1.03;0.60;;;20.90;99.90;;;;;;5036269;28;20538;-90
2022/06/15 06:51:49;;;;;;;1.40;0.68;;;21.00;99.90;;;;;;5038049;28;20025;-89
2022/06/15 06:54:18;;;;;;;0.63;0.60;;;21.00;99.90;;;;;;5042590;28;20048;-90
2022/06/15 06:56:43;;;;;;;0.45;0.45;;;21.00;99.90;;;;;;5040137;28;20520;-90
2022/06/15 06:59:11;;;;;;;0.97;0.40;;;20.80;99.90;;;;;;5020915;28;20029;-89
2022/06/15 07:01:38;;;;;;;0.40;0.40;;;20.90;99.90;;;;;;5038401;28;20284;-90
2022/06/15 07:04:04;;;;;;;0.70;0.70;;;21.00;99.90;;;;;;5036518;28;20042;-89
2022/06/15 07:06:30;;;;;;;2.28;0.93;;;21.20;99.90;;;;;;5017779;28;20085;-90
2022/06/15 07:08:59;;;;;;;0.30;0.30;;;21.30;99.90;;;;;;5016491;28;20037;-88
2022/06/15 07:11:25;;;;;;;3.60;1.52;;;21.40;99.90;;;;;;5045661;28;20029;-90
2022/06/15 07:13:51;;;;;;;0.17;0.17;;;21.40;99.90;;;;;;5041849;28;20539;-90
2022/06/15 07:16:20;;;;;;;2.22;1.30;;;21.60;99.90;;;;;;5036800;28;20036;-91
2022/06/15 07:18:48;;;;;;;2.58;1.33;;;22.10;99.90;;;;;;5039979;28;20025;-91
2022/06/15 07:21:16;;;;;;;1.23;1.13;;;22.10;99.90;;;;;;5038596;28;20083;-89
2022/06/15 07:23:44;;;;;;;13.25;1.35;;;22.20;99.90;;;;;;5045402;28;20052;-89
2022/06/15 07:26:13;;;;;;;0.75;0.43;;;23.20;99.90;;;;;;5033125;28;20484;-89
2022/06/15 07:28:40;;;;;;;0.47;0.40;;;23.80;99.90;;;;;;5043146;28;20048;-89
2022/06/15 07:31:07;;;;;;;1.13;0.82;;;24.50;99.90;;;;;;5038565;28;20082;-90
2022/06/15 07:33:33;;;;;;;;;;;25.10;99.90;;;;;;5039868;28;20112;-90
2022/06/15 07:35:59;;;;;;;1.95;0.65;;;26.00;99.90;;;;;;5036628;28;19909;-90
2022/06/15 07:38:26;;;;;;;1.85;0.85;;;27.70;99.90;;;;;;5042786;28;20645;-89
2022/06/15 07:40:53;;;;;;;0.38;0.38;;;27.50;99.90;;;;;;5033585;28;20052;-89
2022/06/15 07:43:20;;;;;;;0.32;0.32;;;28.60;99.90;;;;;;5038427;28;20673;-89
2022/06/15 07:45:46;;;;;;;1.40;0.73;;;28.20;99.90;;;;;;5028839;28;20053;-89
2022/06/15 07:50:57;;;;;;;0.57;0.45;;;27.60;99.90;;;;;;5026866;28;20056;-80
2022/06/15 07:53:22;;;;;;;1.45;0.38;;;27.40;99.90;;;;;;5032305;28;20029;-80
2022/06/15 07:55:52;;;;;;;0.60;0.60;;;27.70;99.90;;;;;;5032455;28;20114;-80
2022/06/15 07:58:18;;;;;;;0.20;0.20;;;29.20;99.90;;;;;;5030117;28;20119;-80
2022/06/15 08:00:44;;;;;;;;;;;29.70;99.90;;;;;;5038390;28;20140;-80
2022/06/15 08:03:11;;;;;;;1.13;0.25;;;30.70;99.90;;;;;;5038785;28;19913;-81
2022/06/15 08:05:46;;;;;;;0.08;0.08;;;31.30;99.90;;;;;;5034421;28;20117;-81
2022/06/15 08:08:16;;;;;;;0.57;0.43;;;32.50;99.90;;;;;;5016950;28;20040;-81
2022/06/15 08:10:42;;;;;;;0.32;0.32;;;32.70;99.90;;;;;;5034535;28;20283;-81
2022/06/15 08:13:08;;;;;;;0.68;0.65;;;33.20;99.90;;;;;;5028462;28;20106;-80
2022/06/15 08:15:35;;;;;;;0.25;0.13;;;33.80;99.90;;;;;;5011502;28;20017;-81
2022/06/15 08:18:04;;;;;;;0.68;0.30;;;33.50;99.90;;;;;;5029081;28;20052;-81
2022/06/15 08:20:36;;;;;;;0.55;0.50;;;33.60;99.90;;;;;;5035180;28;20044;-80
2022/06/15 08:23:13;;;;;;;2.38;1.48;;;33.80;99.90;;;;;;5030030;28;20392;-81
2022/06/15 08:25:43;;;;;;;0.13;0.13;;;34.60;99.90;;;;;;5037716;28;20032;-81
2022/06/15 08:28:10;;;;;;;0.22;0.22;;;34.80;99.90;;;;;;5040888;28;20041;-82
2022/06/15 08:30:37;;;;;;;3.55;1.33;;;34.90;99.90;;;;;;5039394;28;20409;-81
2022/06/15 08:33:08;;;;;;;0.65;0.52;;;35.20;99.90;;;;;;5042290;28;20033;-81
2022/06/15 08:35:37;;;;;;;0.98;0.57;;;34.80;99.90;;;;;;5024269;28;20020;-80
2022/06/15 08:38:09;;;;;;;0.57;0.43;;;35.30;99.90;;;;;;5039791;28;20037;-80
2022/06/15 08:40:52;;;;;;;4.35;0.85;;;34.70;99.90;;;;;;5039469;28;20047;-80
2022/06/15 08:43:32;;;;;;;1.77;0.75;;;34.80;99.90;;;;;;5023544;28;20033;-80
2022/06/15 08:46:10;;;;;;;0.88;0.77;;;34.80;99.90;;;;;;5029449;28;20115;-81
2022/06/15 08:48:47;;;;;;;0.38;0.30;;;35.10;99.90;;;;;;5022980;28;20037;-80
2022/06/15 08:51:27;;;;;;;0.10;0.10;;;35.70;99.90;;;;;;5040576;28;20110;-81
2022/06/15 08:54:29;;;;;;;1.38;0.95;;;35.50;92.10;;;;;;5027318;28;20084;-80
2022/06/15 08:57:15;;;;;;;2.63;0.95;;;36.30;96.10;;;;;;5026958;28;20062;-81
2022/06/15 08:59:59;;;;;;;0.00;0.00;;;36.40;90.70;;;;;;5026807;28;20064;-82
2022/06/15 09:02:42;;;;;;;1.23;0.80;;;36.60;75.80;;;;;;5035564;28;20102;-82
2022/06/15 09:05:36;;;;;;;3.50;1.23;;;35.60;75.60;;;;;;5010819;28;20087;-81
2022/06/15 09:08:17;;;;;;;0.63;0.63;;;36.90;76.60;;;;;;5029667;28;20511;-81
2022/06/15 09:10:56;;;;;;;2.55;1.13;;;35.30;61.70;;;;;;5032175;28;20032;-81
2022/06/15 09:13:33;;;;;;;0.10;0.10;;;36.50;68.40;;;;;;5034686;28;20524;-81
2022/06/15 09:16:22;;;;;;;2.75;0.20;;;36.60;72.10;;;;;;5035624;28;20033;-82
2022/06/15 09:18:57;;;;;;;0.20;0.20;;;37.50;55.70;;;;;;5029540;28;20028;-81
2022/06/15 09:21:52;;;;;;;0.55;0.30;;;37.10;55.70;;;;;;5018316;28;20420;-80
2022/06/15 09:24:27;;;;;;;0.52;0.50;;;38.10;56.30;;;;;;5023329;28;20037;-81
2022/06/15 09:27:00;;;;;;;0.63;0.38;;;39.00;51.90;;;;;;5040603;28;20040;-82
2022/06/15 09:29:31;;;;;;;0.70;0.57;;;38.20;52.80;;;;;;5031500;28;20482;-82
2022/06/15 09:32:27;;;;;;;0.17;0.17;;;38.20;53.90;;;;;;5037361;28;20032;-82
2022/06/15 09:35:05;;;;;;;0.05;0.05;;;38.00;50.90;;;;;;5021863;28;20566;-82
2022/06/15 09:37:34;;;;;;;0.75;0.75;;;37.90;52.00;;;;;;5038554;28;20028;-83
2022/06/15 09:40:00;;;;;;;2.80;0.93;;;36.70;51.90;;;;;;5039200;28;20123;-82
2022/06/15 09:42:51;;;;;;;16.92;2.63;;;37.20;50.00;;;;;;5043658;28;20037;-83
2022/06/15 09:46:14;;;;;;;2.38;1.13;;;38.70;52.00;;;;;;5042486;28;20029;-81
2022/06/15 09:49:01;;;;;;;0.40;0.28;;;39.00;54.60;;;;;;4997186;28;20047;-80
2022/06/15 09:51:42;;;;;;;3.63;0.75;;;38.60;50.40;;;;;;4998487;28;20711;-81
2022/06/15 09:54:44;;;;;;;2.22;1.08;;;38.10;50.90;;;;;;5001541;28;20045;-81
2022/06/15 09:57:11;;;;;;;3.03;0.60;;;38.30;54.40;;;;;;4994008;28;20173;-82
2022/06/15 09:59:37;;;;;;;1.27;0.88;;;38.40;50.40;;;;;;4999777;28;20137;-80
2022/06/15 10:02:07;;;;;;;2.60;1.00;;;38.60;49.10;;;;;;4994548;28;20069;-80
2022/06/15 10:04:35;;;;;;;1.23;0.82;;;38.60;51.40;;;;;;4997768;28;20108;-82
2022/06/15 10:07:08;;;;;;;0.75;0.52;;;39.50;49.00;;;;;;5000540;28;20811;-82
2022/06/15 10:09:38;;;;;;;0.57;0.47;;;39.40;50.50;;;;;;5000894;28;20580;-83
2022/06/15 10:15:14;;;;;;;0.60;0.45;;;39.90;50.70;;;;;;4998203;28;20048;-82
2022/06/15 10:17:49;;;;;;;2.50;0.50;;;39.30;52.00;;;;;;4985057;28;20997;-82
2022/06/15 10:20:32;;;;;;;0.35;0.30;;;39.00;49.00;;;;;;4998872;28;20426;-82
2022/06/15 10:23:01;;;;;;;0.80;0.40;;;37.80;51.60;;;;;;5000417;28;20041;-81
2022/06/15 10:25:35;;;;;;;0.65;0.63;;;38.50;53.30;;;;;;5029079;28;20037;-81
2022/06/15 10:28:26;;;;;;;0.38;0.38;;;38.20;52.70;;;;;;5012353;28;20116;-82
2022/06/15 10:31:04;;;;;;;0.30;0.30;;;38.20;51.00;;;;;;5004373;28;20043;-81
2022/06/15 10:33:50;;;;;;;0.15;0.15;;;38.40;50.10;;;;;;5040465;28;20064;-81
2022/06/15 10:36:15;;;;;;;;;;;37.80;50.90;;;;;;5024510;28;20029;-81
2022/06/15 10:38:49;;;;;;;1.20;0.60;;;37.40;51.30;;;;;;5026803;28;19913;-81
2022/06/15 10:43:59;;;;;;;7.55;1.15;;;35.50;53.60;;;;;;5014003;28;20094;-83
2022/06/15 10:46:25;;;;;;;0.43;0.43;;;33.80;55.50;;;;;;5029365;28;20783;-83
2022/06/15 10:48:57;;;;;;;;;;;33.40;60.80;;;;;;5033876;28;20048;-81
2022/06/15 10:51:30;;;;;;;0.10;0.10;;;34.00;60.30;;;;;;5033909;28;20759;-82
2022/06/15 10:54:30;;;;;;;0.10;0.05;;;33.40;60.10;;;;;;5038689;28;20052;-83
2022/06/15 11:03:22;;;;;;;0.73;0.60;;;32.30;64.40;;;;;;5040572;28;20092;-81
2022/06/15 11:05:51;;;;;;;1.65;1.08;;;32.30;66.70;;;;;;5043329;28;20511;-81
2022/06/15 11:08:29;;;;;;;0.17;0.17;;;32.60;71.40;;;;;;5040292;28;20127;-81
2022/06/15 11:11:12;;;;;;;0.90;0.52;;;32.60;64.90;;;;;;5038599;28;20849;-81
2022/06/15 11:13:42;;;;;;;0.40;0.38;;;32.20;61.90;;;;;;5035177;28;20033;-80
2022/06/15 11:19:26;;;;;;;0.17;0.17;;;32.00;63.60;;;;;;5032419;28;20047;-82
2022/06/15 11:21:56;;;;;;;0.28;0.28;;;31.70;65.00;;;;;;5013272;28;20037;-81
2022/06/15 11:24:43;;;;;;;2.15;1.48;;;31.90;69.70;;;;;;5030816;28;20036;-82
2022/06/15 11:27:29;;;;;;;0.20;0.20;;;31.90;69.70;;;;;;5037802;28;20033;-81
2022/06/15 11:30:00;;;;;;;0.30;0.30;;;31.80;68.80;;;;;;5038052;28;20060;-80
2022/06/15 11:32:38;;;;;;;0.68;0.60;;;31.60;69.40;;;;;;5036735;28;20163;-81
2022/06/15 11:35:04;;;;;;;0.47;0.30;;;31.60;65.80;;;;;;5037570;28;20037;-80
2022/06/15 11:37:55;;;;;;;0.40;0.20;;;31.50;67.50;;;;;;5039621;28;20040;-81
2022/06/15 11:40:39;;;;;;;0.75;0.40;;;31.60;68.20;;;;;;5031759;28;20056;-81
2022/06/15 11:43:33;;;;;;;4.43;1.40;;;31.40;65.70;;;;;;5029303;28;20059;-80
2022/06/15 11:46:11;;;;;;;0.38;0.30;;;31.40;70.00;;;;;;5026992;28;20178;-81
2022/06/15 11:48:57;;;;;;;0.40;0.40;;;31.30;67.00;;;;;;5021031;28;20034;-81
2022/06/15 11:51:40;;;;;;;0.22;0.22;;;31.40;64.40;;;;;;4935323;29;20069;-81
2022/06/15 11:54:12;;;;;;;0.28;0.28;;;31.30;65.10;;;;;;4936058;28;20051;-82
2022/06/15 11:56:58;;;;;;;0.15;0.15;;;31.30;67.30;;;;;;4941378;29;20031;-82
2022/06/15 11:59:42;;;;;;;1.45;0.82;;;31.20;67.80;;;;;;4941232;29;20585;-82
2022/06/15 12:02:26;;;;;;;0.52;0.52;;;31.30;70.50;;;;;;4941225;28;20497;-82
2022/06/15 12:05:04;;;;;;;1.25;0.55;;;31.20;66.90;;;;;;4940198;29;20037;-82
2022/06/15 12:07:59;;;;;;;3.40;1.55;;;31.20;71.90;;;;;;4941007;29;20035;-82
2022/06/15 12:10:48;;;;;;;0.68;0.55;;;31.20;73.50;;;;;;4920549;29;20712;-82
2022/06/15 12:13:23;;;;;;;0.80;0.65;;;31.50;71.30;;;;;;4930559;29;20067;-82
2022/06/15 12:16:04;;;;;;;2.08;0.38;;;31.20;72.80;;;;;;4939615;29;20046;-82
2022/06/15 12:18:57;;;;;;;1.15;0.70;;;31.20;74.50;;;;;;4938520;29;20559;-81
2022/06/15 12:21:40;;;;;;;2.55;1.02;;;31.20;76.10;;;;;;4935902;29;20139;-82
2022/06/15 12:24:19;;;;;;;1.83;0.93;;;31.20;76.40;;;;;;4922990;28;20034;-81
2022/06/15 12:27:22;;;;;;;0.70;0.38;;;31.20;79.40;;;;;;4921264;29;20055;-82
2022/06/15 12:30:10;;;;;;;1.08;0.73;;;31.20;74.50;;;;;;4939833;29;20042;-82
2022/06/15 12:33:04;;;;;;;0.45;0.45;;;31.10;73.30;;;;;;4932348;29;20027;-81
2022/06/15 12:35:32;;;;;;;1.63;0.73;;;31.10;78.60;;;;;;4934369;29;20058;-81
2022/06/15 12:38:34;;;;;;;0.65;0.50;;;31.10;77.20;;;;;;4922540;29;20032;-81
2022/06/15 12:42:09;;;;;;;0.63;0.52;;;31.10;80.20;;;;;;4937842;29;20053;-81
2022/06/15 12:43:57;;;;;;;4.28;1.23;;;31.00;78.10;;;;;;4936355;29;20578;-81
2022/06/15 12:46:26;;;;;;;0.47;0.45;;;30.90;76.00;;;;;;4936079;28;20684;-81
2022/06/15 12:49:10;;;;;;;0.63;0.63;;;30.80;79.70;;;;;;4939042;28;20478;-82
2022/06/15 12:51:45;;;;;;;0.20;0.20;;;30.90;78.70;;;;;;4939374;28;20641;-87
2022/06/15 12:54:27;;;;;;;1.40;0.85;;;30.80;77.60;;;;;;4939252;28;20035;-87
2022/06/15 12:57:03;;;;;;;0.98;0.65;;;30.70;75.80;;;;;;4932057;28;20042;-88
2022/06/15 12:59:58;;;;;;;0.30;0.30;;;30.80;77.50;;;;;;4937715;28;20519;-87
2022/06/15 13:02:23;;;;;;;0.10;0.10;;;30.80;78.10;;;;;;4940586;28;20064;-87
2022/06/15 13:05:25;;;;;;;0.10;0.10;;;30.70;80.10;;;;;;4938016;28;20462;-87
2022/06/15 13:08:22;;;;;;;0.98;0.45;;;30.60;77.30;;;;;;5016167;28;20038;-87
2022/06/15 13:10:53;;;;;;;0.63;0.63;;;30.60;78.10;;;;;;5022269;28;20125;-87
2022/06/15 13:13:45;;;;;;;1.27;0.88;;;30.60;82.30;;;;;;5022624;28;20485;-87
2022/06/15 13:16:28;;;;;;;2.55;0.57;;;30.70;79.10;;;;;;5013697;28;20061;-88
2022/06/15 13:18:55;;;;;;;6.38;1.52;;;30.60;80.30;;;;;;5018989;28;20033;-88
2022/06/15 13:21:25;;;;;;;0.35;0.22;;;30.60;81.00;;;;;;5017147;28;20127;-87
2022/06/15 13:23:51;;;;;;;0.28;0.28;;;30.40;80.00;;;;;;5019007;28;20033;-87
2022/06/15 13:26:18;;;;;;;1.35;0.65;;;30.40;80.90;;;;;;5016673;28;20034;-87
2022/06/15 13:29:03;;;;;;;8.88;0.98;;;30.40;77.50;;;;;;5010281;28;20407;-87
2022/06/15 13:31:50;;;;;;;2.83;1.55;;;30.40;79.30;;;;;;5014159;28;20068;-88
2022/06/15 13:34:36;;;;;;;3.67;1.30;;;30.50;78.50;;;;;;5018125;28;20034;-87
2022/06/15 13:37:18;;;;;;;0.30;0.30;;;30.40;79.10;;;;;;5019859;28;20088;-88